Terminal Aerodrome Forecast
Issued by NWS Sterling, VA

Home | Current Version | Previous Version | Text Only | Print | Product List | Glossary On
Versions: 1 2 3 4 5 6 7 8 9 10 11 12 13 14 15 16 17 18 19 20 21 22 23 24 25
081
FTUS41 KLWX 292343
TAFIAD
TAF
KIAD 292343Z 3000/0106 28004KT P6SM VCSH FEW060 SCT200
     FM300300 04004KT P6SM FEW050 SCT250
     FM300800 VRB03KT 4SM BR BKN020 BKN030
     FM301800 14007KT P6SM BKN020 BKN030
     FM302100 16009KT P6SM SCT040 BKN060
     FM302300 15007KT P6SM FEW050 SCT060=

USA.gov is the U.S. government's official web portal to all federal, state and local government web resources and services.